Budennovsk, Russia
Current Conditions -  °F | °C
As of 7:00 AM on Thursday 29 Jan 2015 (Local Time) from URMM Reporting Station
Haze Haze  
Wind Chill: 24°   Ceiling: 200
Heat Index: 30°   Visibility: 2.1mi
Dew Point: 30°   Wind: 7mph
Humidity: 100%   Direction: 90°E
Pressure: 29.85"   Gusts: NA
Location:  44.76°N, 44.1°E
Report Text: URMM 290400Z 09003MPS 3500 BR OVC002 M01/M01 Q1011 R12/290250NOSIG RMK QBB070 MT OBSC QFE730/0974
Loading
Personal Weather Stations






























Interactive Weather Map New forecast layout! Learn more

10-Day Weather Forecast

Advertisements
Track Severe Weather on mobile